バマコ の空港の天気 - METARとTAF

バマコ・セヌー国際空港 ( GABS / BKO ) - マリ バマコ
飛行場実況気象(Metar)
観測時間10/19 18:00 GMT (10/19 18:00 UTC)
風向・風速南西 2m/s
視程10km以上
天気現象
少しの雲 雲底高度 610m
少しの雲 雲底高度 910m
気温30℃
湿度70%
気圧1010hPa
METARGABS 191800Z 23003KT 9999 FEW020 FEW030TCU 30/24 Q1010 NOSIG
過去の天気等 Google飛行場航空写真 Wunderground天気予報

過去48時間のMETAR

飛行場予報(TAF)
発表時間: 10/19 17:50 GMT (10/19 17:50 UTC)
予報対象時間: 19日18時 GMT ~ 21日0時 GMT
風向・風速不定 4m/s
視程10km以上
少しの雲 雲底高度 910m
19日20時 GMT ~ 20日2時 GMT に 確率 40% で一時的に
風向・風速東 9m/s 瞬間風速 18m/s
視程4500m
天気現象高い風塵 雷雨
全天の4割程度の雲 雲底高度 910m
全天の4割程度の積乱雲 雲底高度 1010m
20日2時 GMT ~ 20日6時 GMT に 確率 40% で一時的に
天気現象弱い雷雨
全天の8割程度の雲 雲底高度 910m
少しの積乱雲 雲底高度 1010m
20日14時 GMT ~ 20日20時 GMT に 確率 40% で一時的に
風向・風速不定 8m/s 瞬間風速 18m/s
視程4000m
天気現象高い風塵 雷雨
全天の4割程度の雲 雲底高度 910m
少しの積乱雲 雲底高度 1010m
TAF COR GABS 191750Z 1918/2024 VRB08KT 9999 FEW030
PROB40 TEMPO 1920/2002 10018G35KT 4500 BLDU TSRA SCT030 SCT033CB
PROB40 TEMPO 2002/2006 -TSRA BKN030 FEW033CB
PROB40 TEMPO 2014/2020 VRB15G35KT 4000 BLDU TSRA SCT030 FEW033CB